createdAt,value
2022-11-29T00:00:56.653Z,5.53
2022-11-29T00:03:23.019Z,5.44
2022-11-29T00:05:49.491Z,5.44
2022-11-29T00:08:15.815Z,5.40
2022-11-29T00:10:42.200Z,5.46
2022-11-29T00:13:08.500Z,5.39
2022-11-29T00:15:39.490Z,5.47
2022-11-29T00:18:07.027Z,5.52
2022-11-29T00:20:34.736Z,5.62
2022-11-29T00:23:01.227Z,5.50
2022-11-29T00:25:27.883Z,5.44
2022-11-29T00:27:54.192Z,5.49
2022-11-29T00:30:20.906Z,5.50
2022-11-29T00:32:47.506Z,5.58
2022-11-29T00:35:14.282Z,5.43
2022-11-29T00:37:40.647Z,5.41
2022-11-29T00:40:07.686Z,5.28
2022-11-29T00:42:34.026Z,5.21
2022-11-29T00:45:00.355Z,5.35
2022-11-29T00:47:26.695Z,5.41
2022-11-29T00:49:53.008Z,5.41
2022-11-29T00:52:19.331Z,5.47
2022-11-29T00:54:46.038Z,5.47
2022-11-29T00:57:12.489Z,5.42
2022-11-29T00:59:38.786Z,5.42
2022-11-29T01:02:05.235Z,5.52
2022-11-29T01:04:31.606Z,5.54
2022-11-29T01:06:57.944Z,5.49
2022-11-29T01:09:24.254Z,5.49
2022-11-29T01:11:50.617Z,5.47
2022-11-29T01:14:16.921Z,5.50
2022-11-29T01:16:43.313Z,5.50
2022-11-29T01:19:09.694Z,5.47
2022-11-29T01:21:36.031Z,5.50
2022-11-29T01:24:02.408Z,5.40
2022-11-29T01:26:30.688Z,5.36
2022-11-29T01:28:58.641Z,5.42
2022-11-29T01:31:28.723Z,5.41
2022-11-29T01:33:56.742Z,5.43
2022-11-29T01:36:24.176Z,5.48
2022-11-29T01:38:51.250Z,5.51
2022-11-29T01:41:22.774Z,5.45
2022-11-29T01:44:06.014Z,5.42
2022-11-29T01:46:35.561Z,5.31
2022-11-29T01:49:08.140Z,5.32
2022-11-29T01:51:37.542Z,5.47
2022-11-29T01:54:05.720Z,5.40
2022-11-29T01:56:33.893Z,5.38
2022-11-29T01:59:04.142Z,5.29
2022-11-29T02:01:31.234Z,5.19
2022-11-29T02:03:59.030Z,5.25
2022-11-29T02:06:25.806Z,5.34
2022-11-29T02:08:52.190Z,5.46
2022-11-29T02:11:24.447Z,5.53
2022-11-29T02:14:02.025Z,5.64
2022-11-29T02:16:56.249Z,5.51
2022-11-29T02:19:47.918Z,5.42
2022-11-29T02:22:31.149Z,5.40
2022-11-29T02:25:23.244Z,5.43
2022-11-29T02:28:14.169Z,5.52
2022-11-29T02:30:52.593Z,5.69
2022-11-29T02:33:37.920Z,5.74
2022-11-29T02:36:23.671Z,5.60
2022-11-29T02:39:08.078Z,5.52
2022-11-29T02:41:47.078Z,5.40
2022-11-29T02:44:16.072Z,5.38
2022-11-29T02:47:15.122Z,5.30
2022-11-29T02:50:11.665Z,5.32
2022-11-29T02:53:02.282Z,5.41
2022-11-29T02:55:28.537Z,5.37
2022-11-29T02:58:13.590Z,5.41
2022-11-29T03:00:50.276Z,5.40
2022-11-29T03:03:46.297Z,5.31
2022-11-29T03:06:23.303Z,5.40
2022-11-29T03:09:05.444Z,5.48
2022-11-29T03:11:45.513Z,5.56
2022-11-29T03:14:33.229Z,5.60
2022-11-29T03:17:31.254Z,5.46
2022-11-29T03:20:19.385Z,5.48
2022-11-29T03:22:52.011Z,5.59
2022-11-29T03:25:38.698Z,5.70
2022-11-29T03:28:13.428Z,5.65
2022-11-29T03:30:48.835Z,5.69
2022-11-29T03:33:44.930Z,5.63
2022-11-29T03:36:39.952Z,5.55
2022-11-29T03:39:11.025Z,5.57
2022-11-29T03:41:48.317Z,5.59
2022-11-29T03:44:31.640Z,5.62
2022-11-29T03:47:13.069Z,5.63
2022-11-29T03:49:48.219Z,5.64
2022-11-29T03:52:23.712Z,5.65
2022-11-29T03:55:22.039Z,5.68
2022-11-29T03:58:00.260Z,5.61
2022-11-29T04:00:34.089Z,5.64
2022-11-29T04:03:15.616Z,5.68
2022-11-29T04:05:54.162Z,5.64
2022-11-29T04:08:48.406Z,5.59
2022-11-29T04:11:44.987Z,5.67
2022-11-29T04:14:14.017Z,5.75
2022-11-29T04:17:02.402Z,5.63
2022-11-29T04:19:59.017Z,5.56
2022-11-29T04:22:58.316Z,5.55
2022-11-29T04:25:52.434Z,5.60
2022-11-29T04:28:46.519Z,5.47
2022-11-29T04:31:31.467Z,5.60
2022-11-29T04:34:25.536Z,5.58
2022-11-29T04:37:46.212Z,5.50
2022-11-29T04:40:26.134Z,5.57
2022-11-29T04:43:17.628Z,5.57
2022-11-29T04:46:00.722Z,5.66
2022-11-29T04:48:33.009Z,5.69
2022-11-29T04:51:10.114Z,5.71
2022-11-29T04:53:51.814Z,5.68
2022-11-29T04:56:44.646Z,5.67
2022-11-29T04:59:43.013Z,5.66
2022-11-29T05:02:32.597Z,5.69
2022-11-29T05:05:04.209Z,5.70
2022-11-29T05:07:49.553Z,5.55
2022-11-29T05:10:36.172Z,5.44
2022-11-29T05:13:24.986Z,5.43
2022-11-29T05:16:00.521Z,5.47
2022-11-29T05:18:44.837Z,5.53
2022-11-29T05:21:16.674Z,5.53
2022-11-29T05:24:09.480Z,5.57
2022-11-29T05:26:49.057Z,5.46
2022-11-29T05:29:29.533Z,5.35
2022-11-29T05:32:05.912Z,5.44
2022-11-29T05:34:50.353Z,5.52
2022-11-29T05:37:31.344Z,5.55
2022-11-29T05:40:15.672Z,5.58
2022-11-29T05:43:19.584Z,5.60
2022-11-29T05:46:03.137Z,5.46
2022-11-29T05:48:53.767Z,5.42
2022-11-29T05:51:30.682Z,5.50
2022-11-29T05:54:54.096Z,5.53
2022-11-29T05:57:43.763Z,5.43
2022-11-29T06:00:12.966Z,5.40
2022-11-29T06:03:01.499Z,5.30
2022-11-29T06:05:48.181Z,5.31
2022-11-29T06:08:48.135Z,5.36
2022-11-29T06:11:24.621Z,5.53
2022-11-29T06:14:14.161Z,5.66
2022-11-29T06:17:18.030Z,5.68
2022-11-29T06:19:53.276Z,5.74
2022-11-29T06:22:44.099Z,5.66
2022-11-29T06:25:22.975Z,5.62
2022-11-29T06:28:17.477Z,5.64
2022-11-29T06:30:59.766Z,5.51
2022-11-29T06:33:35.201Z,5.49
2022-11-29T06:36:22.946Z,5.55
2022-11-29T06:38:49.469Z,5.54
2022-11-29T06:41:22.623Z,5.49
2022-11-29T06:43:50.191Z,5.59
2022-11-29T06:46:37.949Z,5.55
2022-11-29T06:49:14.094Z,5.55
2022-11-29T06:52:17.761Z,5.66
2022-11-29T06:54:47.171Z,5.69
2022-11-29T06:57:23.786Z,5.79
2022-11-29T07:00:17.818Z,5.78
2022-11-29T07:03:08.940Z,5.76
2022-11-29T07:05:35.876Z,5.78
2022-11-29T07:08:29.921Z,5.60
2022-11-29T07:10:56.597Z,5.69
2022-11-29T07:13:23.280Z,5.76
2022-11-29T07:16:01.242Z,5.75
2022-11-29T07:18:51.604Z,5.65
2022-11-29T07:21:48.253Z,5.72
2022-11-29T07:24:33.594Z,5.78
2022-11-29T07:27:20.092Z,5.73
2022-11-29T07:30:14.430Z,5.77
2022-11-29T07:33:00.604Z,5.80
2022-11-29T07:35:48.298Z,5.79
2022-11-29T07:38:47.012Z,5.81
2022-11-29T07:41:39.177Z,5.85
2022-11-29T07:44:18.463Z,5.88
2022-11-29T07:46:44.833Z,5.92
2022-11-29T07:49:11.205Z,5.92
2022-11-29T07:51:37.640Z,5.95
2022-11-29T07:54:04.368Z,6.00
2022-11-29T07:56:30.727Z,6.01
2022-11-29T07:58:57.099Z,5.94
2022-11-29T08:01:23.572Z,5.92
2022-11-29T08:03:50.029Z,5.89
2022-11-29T08:06:16.348Z,5.99
2022-11-29T08:08:44.302Z,6.03
2022-11-29T08:11:14.082Z,5.97
2022-11-29T08:13:40.382Z,6.03
2022-11-29T08:16:07.069Z,5.86
2022-11-29T08:18:33.419Z,6.09
2022-11-29T08:21:05.593Z,6.14
2022-11-29T08:23:31.913Z,6.22
2022-11-29T08:26:04.370Z,6.22
2022-11-29T08:28:30.669Z,6.18
2022-11-29T08:31:02.219Z,6.27
2022-11-29T08:33:29.236Z,6.40
2022-11-29T08:35:56.226Z,6.48
2022-11-29T08:38:22.773Z,6.53
2022-11-29T08:40:49.109Z,6.54
2022-11-29T08:43:15.414Z,6.51
2022-11-29T08:45:41.771Z,6.30
2022-11-29T08:48:08.124Z,6.43
2022-11-29T08:50:34.421Z,6.36
2022-11-29T08:53:00.751Z,6.47
2022-11-29T08:55:31.122Z,6.51
2022-11-29T08:58:03.972Z,6.55
2022-11-29T09:00:31.265Z,6.55
2022-11-29T09:02:57.634Z,6.60
2022-11-29T09:05:24.061Z,6.61
2022-11-29T09:07:50.476Z,6.60
2022-11-29T09:10:16.898Z,6.64
2022-11-29T09:12:43.282Z,6.77
2022-11-29T09:15:10.335Z,6.92
2022-11-29T09:17:36.731Z,6.96
2022-11-29T09:20:04.113Z,6.99
2022-11-29T09:22:31.217Z,7.06
2022-11-29T09:24:57.523Z,7.10
2022-11-29T09:27:23.871Z,7.07
2022-11-29T09:29:50.173Z,7.04
2022-11-29T09:32:16.502Z,7.03
2022-11-29T09:34:42.915Z,7.08
2022-11-29T09:37:09.501Z,7.16
2022-11-29T09:39:35.814Z,7.10
2022-11-29T09:42:39.566Z,7.12
2022-11-29T09:45:19.313Z,7.05
2022-11-29T09:48:24.547Z,7.04
2022-11-29T09:50:53.898Z,7.04
2022-11-29T09:53:49.429Z,7.02
2022-11-29T09:56:24.073Z,6.97
2022-11-29T09:58:59.006Z,6.99
2022-11-29T10:01:28.340Z,6.93
2022-11-29T10:04:00.239Z,7.08
2022-11-29T10:06:31.377Z,7.23
2022-11-29T10:09:16.926Z,7.24
2022-11-29T10:12:03.181Z,7.19
2022-11-29T10:14:42.717Z,7.25
2022-11-29T10:17:38.320Z,7.45
2022-11-29T10:20:18.800Z,7.31
2022-11-29T10:22:54.544Z,7.25
2022-11-29T10:25:23.314Z,7.33
2022-11-29T10:27:49.804Z,7.42
2022-11-29T10:30:17.050Z,7.48
2022-11-29T10:32:46.463Z,7.48
2022-11-29T10:35:15.789Z,7.46
2022-11-29T10:37:43.919Z,7.50
2022-11-29T10:40:25.115Z,7.33
2022-11-29T10:42:52.214Z,7.55
2022-11-29T10:45:36.730Z,7.74
2022-11-29T10:48:11.259Z,7.79
2022-11-29T10:50:41.122Z,7.87
2022-11-29T10:53:11.119Z,7.94
2022-11-29T10:55:43.227Z,7.81
2022-11-29T10:58:16.656Z,7.81
2022-11-29T11:00:51.827Z,7.79
2022-11-29T11:03:29.070Z,7.78
2022-11-29T11:06:11.360Z,7.82
2022-11-29T11:08:41.162Z,7.83
2022-11-29T11:11:08.408Z,7.80
2022-11-29T11:13:36.464Z,7.70
2022-11-29T11:16:18.406Z,7.77
2022-11-29T11:18:46.952Z,7.74
2022-11-29T11:21:17.986Z,7.78
2022-11-29T11:23:59.785Z,7.76
2022-11-29T11:26:27.501Z,7.79
2022-11-29T11:28:59.838Z,7.78
2022-11-29T11:31:30.602Z,7.85
2022-11-29T11:33:57.466Z,7.83
2022-11-29T11:36:26.423Z,7.92
2022-11-29T11:38:55.994Z,8.03
2022-11-29T11:41:57.851Z,7.83
2022-11-29T11:44:51.237Z,8.00
2022-11-29T11:47:28.265Z,8.07
2022-11-29T11:50:07.865Z,8.07
2022-11-29T11:52:48.898Z,7.99
2022-11-29T11:55:40.379Z,8.05
2022-11-29T11:58:12.808Z,8.13
2022-11-29T12:01:04.076Z,8.12
2022-11-29T12:03:56.650Z,8.11
2022-11-29T12:06:39.293Z,8.14
2022-11-29T12:09:44.183Z,8.12
2022-11-29T12:12:17.990Z,8.13
2022-11-29T12:15:02.071Z,8.01
2022-11-29T12:17:34.265Z,8.14
2022-11-29T12:20:38.873Z,8.12
2022-11-29T12:23:21.674Z,8.09
2022-11-29T12:26:04.217Z,8.04
2022-11-29T12:28:33.563Z,7.98
2022-11-29T12:31:31.112Z,7.99
2022-11-29T12:34:22.383Z,7.97
2022-11-29T12:36:58.972Z,7.88
2022-11-29T12:39:40.674Z,7.98
2022-11-29T12:42:12.763Z,7.88
2022-11-29T12:44:51.913Z,7.91
2022-11-29T12:47:45.182Z,7.94
2022-11-29T12:50:18.882Z,7.85
2022-11-29T12:53:06.565Z,7.87
2022-11-29T12:55:48.325Z,7.84
2022-11-29T12:58:42.753Z,7.88
2022-11-29T13:01:31.615Z,7.90
2022-11-29T13:04:00.986Z,7.91
2022-11-29T13:06:39.616Z,7.90
2022-11-29T13:09:31.435Z,7.91
2022-11-29T13:12:23.790Z,7.92
2022-11-29T13:14:56.462Z,7.99
2022-11-29T13:17:47.957Z,8.02
2022-11-29T13:20:17.241Z,8.07
2022-11-29T13:22:58.616Z,8.01
2022-11-29T13:25:30.163Z,8.04
2022-11-29T13:28:01.681Z,8.01
2022-11-29T13:30:28.089Z,7.99
2022-11-29T13:33:17.273Z,7.93
2022-11-29T13:35:54.480Z,7.88
2022-11-29T13:39:04.026Z,7.87
2022-11-29T13:41:34.572Z,7.90
2022-11-29T13:44:06.114Z,7.79
2022-11-29T13:46:46.726Z,7.83
2022-11-29T13:49:40.356Z,7.91
2022-11-29T13:52:06.884Z,7.92
2022-11-29T13:54:33.578Z,7.88
2022-11-29T13:57:08.510Z,7.84
2022-11-29T13:59:36.799Z,7.67
2022-11-29T14:02:04.341Z,7.81
2022-11-29T14:04:39.260Z,7.90
2022-11-29T14:07:05.473Z,7.78
2022-11-29T14:09:37.277Z,7.89
2022-11-29T14:12:23.868Z,7.91
2022-11-29T14:15:20.733Z,7.91
2022-11-29T14:17:50.525Z,7.96
2022-11-29T14:20:22.644Z,8.01
2022-11-29T14:23:04.392Z,7.93
2022-11-29T14:25:54.970Z,8.02
2022-11-29T14:28:21.252Z,8.04
2022-11-29T14:30:53.276Z,8.02
2022-11-29T14:33:35.261Z,8.07
2022-11-29T14:36:31.624Z,7.92
2022-11-29T14:39:13.024Z,7.87
2022-11-29T14:41:53.154Z,7.99
2022-11-29T14:44:28.185Z,8.00
2022-11-29T14:47:18.641Z,7.81
2022-11-29T14:49:45.286Z,7.87
2022-11-29T14:52:14.307Z,7.82
2022-11-29T14:54:58.484Z,7.82
2022-11-29T14:57:46.920Z,7.85
2022-11-29T15:00:16.477Z,7.89
2022-11-29T15:03:08.705Z,7.75
2022-11-29T15:05:46.141Z,7.82
2022-11-29T15:08:30.246Z,7.77
2022-11-29T15:11:17.721Z,7.77
2022-11-29T15:14:03.354Z,7.72
2022-11-29T15:16:43.051Z,7.71
2022-11-29T15:19:21.158Z,7.72
2022-11-29T15:21:55.982Z,7.65
2022-11-29T15:24:26.755Z,7.64
2022-11-29T15:26:59.400Z,7.68
2022-11-29T15:29:27.689Z,7.68
2022-11-29T15:31:57.343Z,7.61
2022-11-29T15:34:47.012Z,7.47
2022-11-29T15:37:35.490Z,7.44
2022-11-29T15:40:20.138Z,7.39
2022-11-29T15:42:54.978Z,7.41
2022-11-29T15:45:25.812Z,7.40
2022-11-29T15:47:52.370Z,7.46
2022-11-29T15:50:27.770Z,7.45
2022-11-29T15:53:00.929Z,7.29
2022-11-29T15:55:27.911Z,7.39
2022-11-29T15:57:56.537Z,7.45
2022-11-29T16:00:23.190Z,7.46
2022-11-29T16:02:56.494Z,7.47
2022-11-29T16:05:28.248Z,7.47
2022-11-29T16:08:01.856Z,7.40
2022-11-29T16:10:44.080Z,7.29
2022-11-29T16:13:25.663Z,7.28
2022-11-29T16:16:04.429Z,7.17
2022-11-29T16:18:30.828Z,7.28
2022-11-29T16:21:01.839Z,7.30
2022-11-29T16:23:41.385Z,7.32
2022-11-29T16:26:13.765Z,7.40
2022-11-29T16:28:46.537Z,7.34
2022-11-29T16:31:21.435Z,7.34
2022-11-29T16:33:50.926Z,7.42
2022-11-29T16:36:22.161Z,7.39
2022-11-29T16:38:54.193Z,7.29
2022-11-29T16:41:22.798Z,7.30
2022-11-29T16:43:53.179Z,7.32
2022-11-29T16:46:22.557Z,7.31
2022-11-29T16:48:49.882Z,7.37
2022-11-29T16:51:24.454Z,7.46
2022-11-29T16:53:52.215Z,7.45
2022-11-29T16:56:27.608Z,7.42
2022-11-29T16:59:16.966Z,7.41
2022-11-29T17:01:46.820Z,7.39
2022-11-29T17:04:13.171Z,7.45
2022-11-29T17:06:50.717Z,7.38
2022-11-29T17:09:24.791Z,7.68
2022-11-29T17:11:51.069Z,7.75
2022-11-29T17:14:17.379Z,8.17
2022-11-29T17:16:43.714Z,8.11
2022-11-29T17:19:12.210Z,8.13
2022-11-29T17:21:38.507Z,8.11
2022-11-29T17:24:05.235Z,8.34
2022-11-29T17:26:31.539Z,8.21
2022-11-29T17:28:57.916Z,8.19
2022-11-29T17:31:24.587Z,8.13
2022-11-29T17:33:51.139Z,8.28
2022-11-29T17:36:19.866Z,8.12
2022-11-29T17:38:47.139Z,8.18
2022-11-29T17:41:16.256Z,8.18
2022-11-29T17:43:42.674Z,7.86
2022-11-29T17:46:24.147Z,7.66
2022-11-29T17:48:51.016Z,7.77
2022-11-29T17:51:49.865Z,7.85
2022-11-29T17:54:07.519Z,7.73
2022-11-29T17:56:34.382Z,7.83
2022-11-29T17:59:02.679Z,7.82
2022-11-29T18:01:32.174Z,7.73
2022-11-29T18:04:01.087Z,7.56
2022-11-29T18:06:30.007Z,7.58
2022-11-29T18:08:58.921Z,7.52
2022-11-29T18:11:26.776Z,7.53
2022-11-29T18:13:54.486Z,7.55
2022-11-29T18:16:26.629Z,7.48
2022-11-29T18:19:04.421Z,7.45
2022-11-29T18:21:31.314Z,7.44
2022-11-29T18:24:01.702Z,7.42
2022-11-29T18:26:29.119Z,7.42
2022-11-29T18:28:55.652Z,7.36
2022-11-29T18:31:28.374Z,7.39
2022-11-29T18:33:57.285Z,7.44
2022-11-29T18:36:27.310Z,7.46
2022-11-29T18:38:58.940Z,7.37
2022-11-29T18:41:26.512Z,7.33
2022-11-29T18:44:01.377Z,7.32
2022-11-29T18:46:28.136Z,7.14
2022-11-29T18:48:54.474Z,7.32
2022-11-29T18:51:20.789Z,7.32
2022-11-29T18:53:47.266Z,7.40
2022-11-29T18:56:16.522Z,7.45
2022-11-29T18:58:56.845Z,7.46
2022-11-29T19:01:27.578Z,7.50
2022-11-29T19:03:55.369Z,7.46
2022-11-29T19:06:28.097Z,7.47
2022-11-29T19:08:54.740Z,7.45
2022-11-29T19:11:23.529Z,7.35
2022-11-29T19:14:01.541Z,7.31
2022-11-29T19:16:29.530Z,7.25
2022-11-29T19:18:57.743Z,7.29
2022-11-29T19:21:26.143Z,7.33
2022-11-29T19:23:54.833Z,7.35
2022-11-29T19:26:22.093Z,7.42
2022-11-29T19:28:49.171Z,7.43
2022-11-29T19:31:18.145Z,7.43
2022-11-29T19:33:45.312Z,7.43
2022-11-29T19:36:19.272Z,7.41
2022-11-29T19:38:51.662Z,7.35
2022-11-29T19:41:22.625Z,7.36
2022-11-29T19:43:49.617Z,7.42
2022-11-29T19:46:21.992Z,7.26
2022-11-29T19:48:48.659Z,7.20
2022-11-29T19:51:16.053Z,7.24
2022-11-29T19:53:42.432Z,7.22
2022-11-29T19:56:11.797Z,7.20
2022-11-29T19:58:38.388Z,7.25
2022-11-29T20:01:09.524Z,7.22
2022-11-29T20:03:36.193Z,7.30
2022-11-29T20:06:03.260Z,7.16
2022-11-29T20:08:30.122Z,7.19
2022-11-29T20:10:56.609Z,7.29
2022-11-29T20:13:22.937Z,7.34
2022-11-29T20:15:49.355Z,7.29
2022-11-29T20:18:15.949Z,7.27
2022-11-29T20:20:42.270Z,7.37
2022-11-29T20:23:08.600Z,7.37
2022-11-29T20:25:34.953Z,7.39
2022-11-29T20:28:01.473Z,7.38
2022-11-29T20:30:27.800Z,7.37
2022-11-29T20:32:54.262Z,7.36
2022-11-29T20:35:20.788Z,7.37
2022-11-29T20:38:08.926Z,7.23
2022-11-29T20:41:03.004Z,7.24
2022-11-29T20:43:45.035Z,7.32
2022-11-29T20:46:11.688Z,7.34
2022-11-29T20:48:38.254Z,7.35
2022-11-29T20:51:05.223Z,7.39
2022-11-29T20:53:31.500Z,7.35
2022-11-29T20:55:58.224Z,7.32
2022-11-29T20:58:24.588Z,7.32
2022-11-29T21:00:50.939Z,7.39
2022-11-29T21:03:18.488Z,7.42
2022-11-29T21:05:45.726Z,7.39
2022-11-29T21:08:13.410Z,7.19
2022-11-29T21:10:39.809Z,7.20
2022-11-29T21:13:07.465Z,7.18
2022-11-29T21:15:34.254Z,7.19
2022-11-29T21:18:00.982Z,7.27
2022-11-29T21:20:27.575Z,7.25
2022-11-29T21:23:03.297Z,7.29
2022-11-29T21:25:29.679Z,7.34
2022-11-29T21:27:56.684Z,7.35
2022-11-29T21:30:24.599Z,7.25
2022-11-29T21:32:51.467Z,7.16
2022-11-29T21:35:18.055Z,7.27
2022-11-29T21:37:45.124Z,7.23
2022-11-29T21:40:13.950Z,7.31
2022-11-29T21:42:40.390Z,7.35
2022-11-29T21:45:11.807Z,7.41
2022-11-29T21:47:41.911Z,7.26
2022-11-29T21:50:08.678Z,7.15
2022-11-29T21:52:35.038Z,7.14
2022-11-29T21:55:01.608Z,7.23
2022-11-29T21:57:27.932Z,7.28
2022-11-29T21:59:54.268Z,7.32
2022-11-29T22:02:20.736Z,7.30
2022-11-29T22:04:47.319Z,7.32
2022-11-29T22:07:13.724Z,7.22
2022-11-29T22:09:40.116Z,7.16
2022-11-29T22:12:31.829Z,7.07
2022-11-29T22:14:52.992Z,7.13
2022-11-29T22:17:19.355Z,7.19
2022-11-29T22:19:45.680Z,7.21
2022-11-29T22:22:12.011Z,7.27
2022-11-29T22:24:38.353Z,7.31
2022-11-29T22:27:04.967Z,7.32
2022-11-29T22:29:31.306Z,7.22
2022-11-29T22:31:57.676Z,7.27
2022-11-29T22:34:24.122Z,7.32
2022-11-29T22:36:50.765Z,7.37
2022-11-29T22:39:17.083Z,7.28
2022-11-29T22:41:47.033Z,7.19
2022-11-29T22:44:17.082Z,7.27
2022-11-29T22:46:43.523Z,7.24
2022-11-29T22:49:09.881Z,7.23
2022-11-29T22:51:37.871Z,7.23
2022-11-29T22:54:07.054Z,7.16
2022-11-29T22:56:36.229Z,7.21
2022-11-29T22:59:03.851Z,7.17
2022-11-29T23:01:32.543Z,7.10
2022-11-29T23:04:01.317Z,7.05
2022-11-29T23:06:29.862Z,6.98
2022-11-29T23:09:02.812Z,6.99
2022-11-29T23:11:30.111Z,6.98
2022-11-29T23:13:56.573Z,6.86
2022-11-29T23:16:25.802Z,6.85
2022-11-29T23:18:53.391Z,6.79
2022-11-29T23:21:25.838Z,6.77
2022-11-29T23:23:56.306Z,6.76
2022-11-29T23:26:30.936Z,6.75
2022-11-29T23:28:58.268Z,6.67
2022-11-29T23:31:24.991Z,6.60
2022-11-29T23:33:51.446Z,6.66
2022-11-29T23:36:17.834Z,6.67
2022-11-29T23:38:44.260Z,6.64
2022-11-29T23:41:11.582Z,6.65
2022-11-29T23:43:39.824Z,6.69
2022-11-29T23:46:10.148Z,6.77
2022-11-29T23:48:36.482Z,6.60
2022-11-29T23:51:02.948Z,6.48
2022-11-29T23:53:29.614Z,6.61
2022-11-29T23:56:08.104Z,6.59
2022-11-29T23:58:35.595Z,6.54
